Time,TemperatureF,DewpointF,PressureIn,WindDirection,WindDirectionDegrees,WindSpeedMPH,WindSpeedGustMPH,Humidity,HourlyPrecipIn,Conditions,Clouds,dailyrainin,SolarRadiationWatts/m^2,SoftwareType,DateUTC
2013-06-24 00:02:00,67.0,62.0,-100.00,West,277,3.0,5.0,83,0.00,,,0.00,0.000000,,2013-06-24 04:02:00,
2013-06-24 00:12:00,67.0,62.0,-100.00,West,277,3.0,5.0,83,0.00,,,0.00,0.000000,,2013-06-24 04:12:00,
2013-06-24 00:43:00,68.0,64.0,-100.00,SW,229,1.0,5.0,86,0.00,,,0.00,0.000000,,2013-06-24 04:43:00,
2013-06-24 00:53:00,68.0,64.0,-100.00,SW,229,1.0,5.0,86,0.00,,,0.00,0.000000,,2013-06-24 04:53:00,
2013-06-24 01:02:00,68.0,64.0,-100.00,SW,229,1.0,5.0,86,0.00,,,0.00,0.000000,,2013-06-24 05:02:00,
2013-06-24 01:12:00,68.0,64.0,-100.00,SW,229,1.0,5.0,86,0.00,,,0.00,0.000000,,2013-06-24 05:12:00,
2013-06-24 01:15:00,68.0,61.0,-100.00,NW,306,1.0,4.0,79,0.00,,,0.00,0.000000,,2013-06-24 05:15:00,
2013-06-24 01:48:00,68.0,61.0,-100.00,NW,306,1.0,4.0,79,0.00,,,0.00,0.000000,,2013-06-24 05:48:00,
2013-06-24 01:57:00,68.0,61.0,-100.00,NW,306,1.0,4.0,79,0.00,,,0.00,0.000000,,2013-06-24 05:57:00,
2013-06-24 02:10:00,68.0,61.0,-100.00,NW,306,1.0,4.0,79,0.00,,,0.00,0.000000,,2013-06-24 06:10:00,
2013-06-24 02:15:00,67.0,61.0,-100.00,NW,322,1.0,3.0,82,0.00,,,0.00,0.000000,,2013-06-24 06:15:00,
2013-06-24 02:48:00,67.0,61.0,-100.00,NW,322,1.0,3.0,82,0.00,,,0.00,0.000000,,2013-06-24 06:48:00,
2013-06-24 02:57:00,67.0,61.0,-100.00,NW,322,1.0,3.0,82,0.00,,,0.00,0.000000,,2013-06-24 06:57:00,
2013-06-24 03:06:00,67.0,61.0,-100.00,NW,322,1.0,3.0,82,0.00,,,0.00,0.000000,,2013-06-24 07:06:00,
2013-06-24 03:49:00,66.0,61.0,-100.00,NW,322,1.0,3.0,84,0.00,,,0.00,0.000000,,2013-06-24 07:49:00,
2013-06-24 03:58:00,66.0,61.0,-100.00,NW,322,1.0,3.0,84,0.00,,,0.00,0.000000,,2013-06-24 07:58:00,
2013-06-24 04:05:00,66.0,61.0,-100.00,NW,322,1.0,3.0,84,0.00,,,0.00,0.000000,,2013-06-24 08:05:00,
2013-06-24 04:48:00,66.0,62.0,-100.00,NW,322,1.0,1.0,86,0.00,,,0.00,0.000000,,2013-06-24 08:48:00,
2013-06-24 04:56:00,66.0,62.0,-100.00,NW,322,1.0,1.0,86,0.00,,,0.00,0.000000,,2013-06-24 08:56:00,
2013-06-24 05:15:00,66.0,62.0,-100.00,NW,321,1.0,2.0,86,0.00,,,0.00,0.000000,,2013-06-24 09:15:00,
2013-06-24 05:49:00,66.0,62.0,-100.00,NW,321,1.0,2.0,86,0.00,,,0.00,0.000000,,2013-06-24 09:49:00,
2013-06-24 06:00:00,66.0,62.0,-100.00,NW,321,1.0,2.0,86,0.00,,,0.00,0.000000,,2013-06-24 10:00:00,
2013-06-24 06:51:00,65.0,60.0,-100.00,NW,320,1.0,3.0,85,0.00,,,0.00,2.000000,,2013-06-24 10:51:00,
2013-06-24 06:59:00,65.0,60.0,-100.00,NW,320,1.0,3.0,85,0.00,,,0.00,2.000000,,2013-06-24 10:59:00,
2013-06-24 07:51:00,68.0,62.0,-100.00,NW,318,0.0,2.0,82,0.00,,,0.00,54.000000,,2013-06-24 11:51:00,
2013-06-24 07:58:00,68.0,62.0,-100.00,NW,318,0.0,2.0,82,0.00,,,0.00,54.000000,,2013-06-24 11:58:00,
2013-06-24 08:07:00,68.0,62.0,-100.00,NW,318,0.0,2.0,82,0.00,,,0.00,54.000000,,2013-06-24 12:07:00,
2013-06-24 08:49:00,70.0,64.0,-100.00,NW,319,1.0,2.0,80,0.00,,,0.00,122.000000,,2013-06-24 12:49:00,
2013-06-24 09:06:00,70.0,64.0,-100.00,NW,319,1.0,2.0,80,0.00,,,0.00,122.000000,,2013-06-24 13:06:00,
2013-06-24 09:14:00,70.0,64.0,-100.00,NW,319,1.0,2.0,80,0.00,,,0.00,122.000000,,2013-06-24 13:14:00,
2013-06-24 09:46:00,76.0,66.0,-100.00,NW,312,2.0,5.0,72,0.00,,,0.00,340.000000,,2013-06-24 13:46:00,
2013-06-24 09:58:00,76.0,66.0,-100.00,NW,312,2.0,5.0,72,0.00,,,0.00,340.000000,,2013-06-24 13:58:00,
2013-06-24 10:04:00,76.0,66.0,-100.00,NW,312,2.0,5.0,72,0.00,,,0.00,340.000000,,2013-06-24 14:04:00,
2013-06-24 10:15:00,78.0,67.0,-100.00,NW,305,1.0,4.0,70,0.00,,,0.00,382.000000,,2013-06-24 14:15:00,
2013-06-24 10:47:00,78.0,67.0,-100.00,NW,305,1.0,4.0,70,0.00,,,0.00,382.000000,,2013-06-24 14:47:00,
2013-06-24 10:59:00,78.0,67.0,-100.00,NW,305,1.0,4.0,70,0.00,,,0.00,382.000000,,2013-06-24 14:59:00,
2013-06-24 11:15:00,80.0,66.0,-100.00,WNW,291,0.0,2.0,62,0.00,,,0.00,625.000000,,2013-06-24 15:15:00,
2013-06-24 11:49:00,80.0,66.0,-100.00,WNW,291,0.0,2.0,62,0.00,,,0.00,625.000000,,2013-06-24 15:49:00,
2013-06-24 11:57:00,80.0,66.0,-100.00,WNW,291,0.0,2.0,62,0.00,,,0.00,625.000000,,2013-06-24 15:57:00,
2013-06-24 12:04:00,80.0,66.0,-100.00,WNW,291,0.0,2.0,62,0.00,,,0.00,625.000000,,2013-06-24 16:04:00,
2013-06-24 12:15:00,79.0,63.0,-100.00,WNW,286,1.0,3.0,59,0.00,,,-99.99,462.000000,,2013-06-24 16:15:00,
2013-06-24 12:45:00,79.0,63.0,-100.00,WNW,286,1.0,3.0,59,0.00,,,-99.99,462.000000,,2013-06-24 16:45:00,
2013-06-24 12:56:00,79.0,63.0,-100.00,WNW,286,1.0,3.0,59,0.00,,,-99.99,462.000000,,2013-06-24 16:56:00,
2013-06-24 13:06:00,79.0,63.0,-100.00,WNW,286,1.0,3.0,59,0.00,,,-99.99,462.000000,,2013-06-24 17:06:00,
2013-06-24 13:15:00,84.0,66.0,-100.00,West,270,1.0,2.0,54,0.00,,,0.00,796.000000,,2013-06-24 17:15:00,
2013-06-24 13:57:00,84.0,66.0,-100.00,West,270,1.0,2.0,54,0.00,,,0.00,796.000000,,2013-06-24 17:57:00,
2013-06-24 14:03:00,84.0,66.0,-100.00,West,270,1.0,2.0,54,0.00,,,0.00,796.000000,,2013-06-24 18:03:00,
2013-06-24 14:56:00,78.0,61.0,-100.00,WSW,250,0.0,1.0,56,0.00,,,0.00,494.000000,,2013-06-24 18:56:00,
2013-06-24 15:07:00,78.0,61.0,-100.00,WSW,250,0.0,1.0,56,0.00,,,0.00,494.000000,,2013-06-24 19:07:00,
2013-06-24 15:13:00,78.0,61.0,-100.00,WSW,250,0.0,1.0,56,0.00,,,0.00,494.000000,,2013-06-24 19:13:00,
2013-06-24 15:46:00,71.0,59.0,-100.00,SSE,163,1.0,9.0,65,0.00,,,0.00,208.000000,,2013-06-24 19:46:00,
2013-06-24 15:57:00,71.0,59.0,-100.00,SSE,163,1.0,9.0,65,0.00,,,0.00,208.000000,,2013-06-24 19:57:00,
2013-06-24 16:06:00,71.0,59.0,-100.00,SSE,163,1.0,9.0,65,0.00,,,0.00,208.000000,,2013-06-24 20:06:00,
2013-06-24 16:12:00,71.0,59.0,-100.00,SSE,163,1.0,9.0,65,0.00,,,0.00,208.000000,,2013-06-24 20:12:00,
2013-06-24 16:47:00,79.0,62.0,-100.00,SW,224,1.0,2.0,57,0.00,,,0.00,729.000000,,2013-06-24 20:47:00,
2013-06-24 16:56:00,79.0,62.0,-100.00,SW,224,1.0,2.0,57,0.00,,,0.00,729.000000,,2013-06-24 20:56:00,
2013-06-24 17:04:00,79.0,62.0,-100.00,SW,224,1.0,2.0,57,0.00,,,0.00,729.000000,,2013-06-24 21:04:00,
2013-06-24 17:14:00,79.0,62.0,-100.00,SW,224,1.0,2.0,57,0.00,,,0.00,729.000000,,2013-06-24 21:14:00,
2013-06-24 17:15:00,80.0,69.0,-100.00,South,174,1.0,3.0,69,0.00,,,0.00,570.000000,,2013-06-24 21:15:00,
2013-06-24 17:48:00,80.0,69.0,-100.00,South,174,1.0,3.0,69,0.00,,,0.00,570.000000,,2013-06-24 21:48:00,
2013-06-24 17:55:00,80.0,69.0,-100.00,South,174,1.0,3.0,69,0.00,,,0.00,570.000000,,2013-06-24 21:55:00,
2013-06-24 18:07:00,80.0,69.0,-100.00,South,174,1.0,3.0,69,0.00,,,0.00,570.000000,,2013-06-24 22:07:00,
2013-06-24 18:51:00,78.0,68.0,-100.00,South,171,1.0,2.0,71,0.00,,,-99.99,405.000000,,2013-06-24 22:51:00,
2013-06-24 18:56:00,78.0,68.0,-100.00,South,171,1.0,2.0,71,0.00,,,-99.99,405.000000,,2013-06-24 22:56:00,
2013-06-24 19:06:00,78.0,68.0,-100.00,South,171,1.0,2.0,71,0.00,,,-99.99,405.000000,,2013-06-24 23:06:00,
2013-06-24 19:14:00,78.0,68.0,-100.00,South,171,1.0,2.0,71,0.00,,,-99.99,405.000000,,2013-06-24 23:14:00,
2013-06-24 19:46:00,73.0,64.0,-100.00,South,171,1.0,3.0,74,0.00,,,0.00,128.000000,,2013-06-24 23:46:00,
2013-06-24 19:56:00,73.0,64.0,-100.00,South,171,1.0,3.0,74,0.00,,,0.00,128.000000,,2013-06-24 23:56:00,
2013-06-24 20:14:00,73.0,64.0,-100.00,South,171,1.0,3.0,74,0.00,,,0.00,128.000000,,2013-06-25 00:14:00,
2013-06-24 21:15:00,69.0,56.0,-100.00,SW,220,2.0,3.0,64,-99.99,,,0.00,4.000000,,2013-06-25 01:15:00,
2013-06-24 21:46:00,69.0,56.0,-100.00,SW,220,2.0,3.0,64,-99.99,,,0.00,4.000000,,2013-06-25 01:46:00,
2013-06-24 21:58:00,69.0,56.0,-100.00,SW,220,2.0,3.0,64,-99.99,,,0.00,4.000000,,2013-06-25 01:58:00,
2013-06-24 22:06:00,69.0,56.0,-100.00,SW,220,2.0,3.0,64,-99.99,,,0.00,4.000000,,2013-06-25 02:06:00,
2013-06-24 22:49:00,69.0,58.0,-100.00,WSW,237,1.0,3.0,67,0.00,,,0.00,0.000000,,2013-06-25 02:49:00,
2013-06-24 22:58:00,69.0,58.0,-100.00,WSW,237,1.0,3.0,67,0.00,,,0.00,0.000000,,2013-06-25 02:58:00,
2013-06-24 23:08:00,69.0,58.0,-100.00,WSW,237,1.0,3.0,67,0.00,,,0.00,0.000000,,2013-06-25 03:08:00,